createdAt,value
2022-08-08T00:02:04.183Z,51.08
2022-08-08T00:04:33.312Z,50.97
2022-08-08T00:07:21.062Z,51.09
2022-08-08T00:10:10.814Z,51.08
2022-08-08T00:12:56.291Z,51.20
2022-08-08T00:15:56.674Z,51.19
2022-08-08T00:18:37.757Z,51.50
2022-08-08T00:21:16.342Z,51.66
2022-08-08T00:23:51.048Z,51.98
2022-08-08T00:26:29.366Z,52.05
2022-08-08T00:29:14.977Z,51.69
2022-08-08T00:32:20.751Z,52.02
2022-08-08T00:35:20.505Z,51.77
2022-08-08T00:38:06.386Z,51.68
2022-08-08T00:41:22.191Z,51.69
2022-08-08T00:44:34.672Z,51.80
2022-08-08T00:48:05.261Z,51.75
2022-08-08T00:51:22.846Z,51.81
2022-08-08T00:54:41.764Z,51.78
2022-08-08T00:57:48.519Z,51.81
2022-08-08T01:00:28.156Z,52.21
2022-08-08T01:04:02.128Z,51.94
2022-08-08T01:07:18.925Z,52.00
2022-08-08T01:10:42.866Z,52.11
2022-08-08T01:13:45.988Z,52.20
2022-08-08T01:16:57.695Z,52.26
2022-08-08T01:20:02.636Z,52.31
2022-08-08T01:22:55.727Z,52.37
2022-08-08T01:25:43.438Z,52.43
2022-08-08T01:28:36.892Z,52.41
2022-08-08T01:32:13.717Z,52.24
2022-08-08T01:35:30.650Z,52.28
2022-08-08T01:38:15.321Z,52.64
2022-08-08T01:41:01.530Z,52.79
2022-08-08T01:43:49.018Z,52.67
2022-08-08T01:46:47.709Z,52.57
2022-08-08T01:49:43.637Z,52.65
2022-08-08T01:53:35.270Z,52.65
2022-08-08T01:56:27.703Z,52.70
2022-08-08T01:58:38.883Z,52.56
2022-08-08T02:01:28.063Z,52.82
2022-08-08T02:04:22.107Z,53.03
2022-08-08T02:06:59.431Z,53.30
2022-08-08T02:10:02.512Z,53.49
2022-08-08T02:12:51.774Z,53.14
2022-08-08T02:15:30.535Z,53.10
2022-08-08T02:18:25.526Z,53.17
2022-08-08T02:21:18.299Z,53.23
2022-08-08T02:23:58.830Z,53.23
2022-08-08T02:26:35.449Z,53.20
2022-08-08T02:29:20.788Z,53.12
2022-08-08T02:32:08.611Z,53.11
2022-08-08T02:35:11.081Z,53.10
2022-08-08T02:38:41.568Z,53.04
2022-08-08T02:42:04.371Z,53.11
2022-08-08T02:45:18.836Z,53.11
2022-08-08T02:48:26.289Z,53.04
2022-08-08T02:51:38.961Z,52.98
2022-08-08T02:54:50.768Z,53.00
2022-08-08T02:57:55.172Z,53.01
2022-08-08T03:01:14.945Z,52.99
2022-08-08T03:05:02.374Z,52.99
2022-08-08T03:07:59.283Z,53.01
2022-08-08T03:11:31.815Z,53.09
2022-08-08T03:15:56.635Z,53.08
2022-08-08T03:17:39.708Z,53.10
2022-08-08T03:20:11.792Z,53.36
2022-08-08T03:22:56.188Z,53.36
2022-08-08T03:25:33.990Z,53.58
2022-08-08T03:28:10.924Z,53.47
2022-08-08T03:30:48.734Z,53.50
2022-08-08T03:34:00.274Z,53.62
2022-08-08T03:36:19.547Z,53.44
2022-08-08T03:39:04.194Z,53.63
2022-08-08T03:42:11.549Z,53.77
2022-08-08T03:44:34.842Z,53.84
2022-08-08T03:47:19.744Z,53.92
2022-08-08T03:49:58.607Z,54.14
2022-08-08T03:52:33.690Z,54.40
2022-08-08T03:55:55.272Z,54.51
2022-08-08T03:58:36.334Z,54.64
2022-08-08T04:01:01.552Z,54.43
2022-08-08T04:03:57.015Z,54.42
2022-08-08T04:06:29.401Z,54.83
2022-08-08T04:09:10.438Z,54.84
2022-08-08T04:11:58.930Z,54.66
2022-08-08T04:14:46.164Z,54.77
2022-08-08T04:17:45.735Z,55.00
2022-08-08T04:20:09.804Z,55.00
2022-08-08T04:22:38.811Z,55.22
2022-08-08T04:25:13.154Z,55.42
2022-08-08T04:28:02.250Z,55.42
2022-08-08T04:30:36.684Z,55.51
2022-08-08T04:33:15.703Z,55.61
2022-08-08T04:35:50.648Z,55.65
2022-08-08T04:38:22.180Z,55.79
2022-08-08T04:40:54.059Z,55.88
2022-08-08T04:43:32.342Z,55.95
2022-08-08T04:46:18.586Z,56.13
2022-08-08T04:48:49.447Z,56.24
2022-08-08T04:51:27.976Z,56.28
2022-08-08T04:54:38.229Z,56.32
2022-08-08T04:56:56.903Z,56.35
2022-08-08T04:59:30.069Z,56.20
2022-08-08T05:02:00.958Z,56.32
2022-08-08T05:04:30.287Z,56.41
2022-08-08T05:06:59.013Z,56.68
2022-08-08T05:09:27.595Z,56.79
2022-08-08T05:11:57.810Z,56.89
2022-08-08T05:14:30.978Z,56.74
2022-08-08T05:17:08.760Z,56.71
2022-08-08T05:20:09.579Z,56.84
2022-08-08T05:22:35.859Z,56.81
2022-08-08T05:25:06.185Z,56.81
2022-08-08T05:27:41.814Z,56.80
2022-08-08T05:30:16.676Z,56.75
2022-08-08T05:32:57.232Z,56.86
2022-08-08T05:35:27.784Z,56.64
2022-08-08T05:38:04.666Z,56.52
2022-08-08T05:40:58.070Z,56.20
2022-08-08T05:43:39.420Z,56.22
2022-08-08T05:46:24.611Z,56.24
2022-08-08T05:48:56.256Z,56.27
2022-08-08T05:51:48.132Z,56.41
2022-08-08T05:54:28.873Z,56.31
2022-08-08T05:57:57.455Z,55.93
2022-08-08T06:00:24.940Z,55.99
2022-08-08T06:03:24.860Z,56.00
2022-08-08T06:06:01.381Z,55.94
2022-08-08T06:08:40.260Z,55.61
2022-08-08T06:11:22.335Z,55.59
2022-08-08T06:13:57.101Z,55.25
2022-08-08T06:16:30.122Z,55.24
2022-08-08T06:19:07.366Z,55.29
2022-08-08T06:21:51.680Z,55.08
2022-08-08T06:24:35.908Z,55.15
2022-08-08T06:27:10.664Z,54.54
2022-08-08T06:29:59.170Z,54.26
2022-08-08T06:32:31.366Z,54.36
2022-08-08T06:35:35.536Z,54.01
2022-08-08T06:38:09.276Z,54.22
2022-08-08T06:40:48.596Z,53.88
2022-08-08T06:43:28.579Z,53.96
2022-08-08T06:46:09.216Z,53.81
2022-08-08T06:48:42.349Z,53.45
2022-08-08T06:51:15.899Z,53.38
2022-08-08T06:53:50.952Z,53.20
2022-08-08T06:56:32.119Z,53.41
2022-08-08T06:59:02.181Z,53.09
2022-08-08T07:02:18.142Z,52.95
2022-08-08T07:04:45.384Z,52.41
2022-08-08T07:07:39.590Z,52.39
2022-08-08T07:10:12.706Z,52.04
2022-08-08T07:12:47.453Z,52.07
2022-08-08T07:15:40.848Z,51.61
2022-08-08T07:18:36.813Z,51.40
2022-08-08T07:21:19.282Z,50.82
2022-08-08T07:24:03.081Z,50.34
2022-08-08T07:26:41.706Z,49.92
2022-08-08T07:29:20.421Z,49.88
2022-08-08T07:32:03.258Z,48.74
2022-08-08T07:34:33.063Z,48.50
2022-08-08T07:37:11.767Z,48.79
2022-08-08T07:39:57.918Z,48.23
2022-08-08T07:42:33.040Z,48.18
2022-08-08T07:45:04.564Z,48.09
2022-08-08T07:47:39.380Z,46.79
2022-08-08T07:50:11.796Z,46.58
2022-08-08T07:52:47.543Z,46.19
2022-08-08T07:55:28.651Z,46.29
2022-08-08T07:58:14.751Z,46.09
2022-08-08T08:00:49.349Z,45.49
2022-08-08T08:03:31.188Z,44.92
2022-08-08T08:06:16.513Z,45.51
2022-08-08T08:08:52.539Z,44.90
2022-08-08T08:11:33.565Z,44.05
2022-08-08T08:14:10.685Z,44.64
2022-08-08T08:16:48.542Z,43.84
2022-08-08T08:19:45.389Z,43.70
2022-08-08T08:22:31.252Z,43.95
2022-08-08T08:25:08.088Z,43.32
2022-08-08T08:27:46.568Z,43.49
2022-08-08T08:30:16.431Z,42.42
2022-08-08T08:32:51.459Z,41.78
2022-08-08T08:35:29.805Z,40.71
2022-08-08T08:38:17.534Z,41.88
2022-08-08T08:40:53.806Z,41.71
2022-08-08T08:43:26.861Z,41.40
2022-08-08T08:46:03.528Z,41.17
2022-08-08T08:48:35.008Z,41.69
2022-08-08T08:51:05.111Z,40.85
2022-08-08T08:53:56.649Z,41.36
2022-08-08T08:56:29.703Z,40.23
2022-08-08T08:59:15.089Z,39.39
2022-08-08T09:01:51.791Z,39.74
2022-08-08T09:04:38.589Z,39.90
2022-08-08T09:07:24.014Z,39.55
2022-08-08T09:10:17.454Z,38.63
2022-08-08T09:12:50.515Z,39.04
2022-08-08T09:15:37.073Z,39.29
2022-08-08T09:18:11.029Z,38.01
2022-08-08T09:21:58.543Z,38.96
2022-08-08T09:23:33.491Z,37.76
2022-08-08T09:26:13.692Z,37.61
2022-08-08T09:28:44.496Z,37.97
2022-08-08T09:31:56.665Z,37.40
2022-08-08T09:34:34.596Z,38.36
2022-08-08T09:37:46.251Z,39.20
2022-08-08T09:40:11.390Z,35.93
2022-08-08T09:42:44.277Z,35.24
2022-08-08T09:45:54.909Z,33.25
2022-08-08T09:48:21.092Z,33.14
2022-08-08T09:50:54.980Z,32.74
2022-08-08T09:53:53.118Z,33.17
2022-08-08T09:56:21.790Z,31.79
2022-08-08T09:58:58.535Z,31.73
2022-08-08T10:01:59.055Z,31.64
2022-08-08T10:04:38.377Z,30.71
2022-08-08T10:07:16.479Z,30.63
2022-08-08T10:09:59.761Z,30.45
2022-08-08T10:12:54.122Z,31.32
2022-08-08T10:15:27.568Z,31.66
2022-08-08T10:18:09.185Z,31.95
2022-08-08T10:20:51.066Z,33.20
2022-08-08T10:23:42.325Z,33.69
2022-08-08T10:26:25.815Z,33.38
2022-08-08T10:29:05.500Z,33.44
2022-08-08T10:31:54.979Z,34.17
2022-08-08T10:34:25.030Z,34.53
2022-08-08T10:36:59.647Z,34.15
2022-08-08T10:39:43.534Z,34.08
2022-08-08T10:42:21.256Z,34.37
2022-08-08T10:45:02.278Z,34.57
2022-08-08T10:47:43.948Z,33.09
2022-08-08T10:50:16.697Z,32.91
2022-08-08T10:52:46.550Z,32.19
2022-08-08T10:55:39.684Z,31.82
2022-08-08T10:58:07.797Z,32.75
2022-08-08T11:00:52.731Z,33.03
2022-08-08T11:03:36.528Z,31.38
2022-08-08T11:06:17.533Z,30.58
2022-08-08T11:08:49.960Z,30.40
2022-08-08T11:11:32.592Z,29.93
2022-08-08T11:14:16.083Z,28.65
2022-08-08T11:16:47.243Z,28.94
2022-08-08T11:19:17.205Z,30.19
2022-08-08T11:21:55.484Z,29.64
2022-08-08T11:24:27.395Z,30.58
2022-08-08T11:27:01.314Z,30.48
2022-08-08T11:29:51.498Z,31.35
2022-08-08T11:32:32.238Z,31.25
2022-08-08T11:35:23.176Z,31.96
2022-08-08T11:38:39.757Z,31.35
2022-08-08T11:40:51.743Z,32.23
2022-08-08T11:43:26.005Z,31.32
2022-08-08T11:46:17.855Z,31.64
2022-08-08T11:48:48.721Z,31.05
2022-08-08T11:51:29.580Z,31.31
2022-08-08T11:54:09.699Z,31.25
2022-08-08T11:56:57.625Z,30.26
2022-08-08T11:59:58.293Z,31.21
2022-08-08T12:02:33.020Z,31.12
2022-08-08T12:05:03.486Z,30.70
2022-08-08T12:07:32.421Z,31.23
2022-08-08T12:10:12.364Z,31.21
2022-08-08T12:12:48.680Z,31.17
2022-08-08T12:15:28.198Z,30.58
2022-08-08T12:17:56.603Z,30.72
2022-08-08T12:20:25.656Z,31.71
2022-08-08T12:22:57.032Z,31.57
2022-08-08T12:25:30.947Z,32.83
2022-08-08T12:28:15.467Z,32.86
2022-08-08T12:30:47.910Z,32.02
2022-08-08T12:33:19.840Z,31.92
2022-08-08T12:35:52.389Z,31.90
2022-08-08T12:41:33.685Z,31.59
2022-08-08T12:44:08.362Z,31.84
2022-08-08T12:46:37.710Z,32.22
2022-08-08T12:49:29.517Z,32.21
2022-08-08T12:52:00.372Z,30.35
2022-08-08T12:54:33.433Z,31.07
2022-08-08T12:57:17.358Z,31.33
2022-08-08T13:00:03.451Z,30.99
2022-08-08T13:02:37.016Z,30.46
2022-08-08T13:05:26.415Z,30.49
2022-08-08T13:08:17.742Z,29.11
2022-08-08T13:10:57.301Z,28.27
2022-08-08T13:13:35.470Z,28.02
2022-08-08T13:16:25.892Z,27.92
2022-08-08T13:19:02.585Z,27.40
2022-08-08T13:21:53.061Z,29.27
2022-08-08T13:24:42.265Z,29.45
2022-08-08T13:27:16.038Z,29.90
2022-08-08T13:29:54.971Z,30.89
2022-08-08T13:32:26.213Z,31.64
2022-08-08T13:34:56.120Z,32.31
2022-08-08T13:37:52.111Z,30.11
2022-08-08T13:40:17.801Z,28.97
2022-08-08T13:42:55.947Z,28.36
2022-08-08T13:45:27.186Z,27.13
2022-08-08T13:48:01.143Z,25.14
2022-08-08T13:50:48.062Z,24.61
2022-08-08T13:53:34.383Z,24.24
2022-08-08T13:56:11.868Z,23.31
2022-08-08T13:58:57.528Z,23.15
2022-08-08T14:01:32.748Z,25.75
2022-08-08T14:04:25.128Z,26.04
2022-08-08T14:07:00.428Z,24.78
2022-08-08T14:10:02.236Z,24.05
2022-08-08T14:12:28.213Z,24.62
2022-08-08T14:14:57.236Z,25.00
2022-08-08T14:17:57.109Z,25.27
2022-08-08T14:20:55.853Z,26.22
2022-08-08T14:23:10.153Z,26.26
2022-08-08T14:25:46.826Z,26.21
2022-08-08T14:28:23.705Z,27.12
2022-08-08T14:31:09.250Z,27.05
2022-08-08T14:33:39.316Z,26.59
2022-08-08T14:36:13.357Z,25.67
2022-08-08T14:38:52.545Z,25.92
2022-08-08T14:41:53.847Z,26.68
2022-08-08T14:44:16.965Z,27.35
2022-08-08T14:47:01.044Z,27.36
2022-08-08T14:49:37.801Z,26.72
2022-08-08T14:52:25.415Z,26.63
2022-08-08T14:54:53.777Z,27.36
2022-08-08T14:58:03.312Z,26.16
2022-08-08T15:00:11.885Z,26.43
2022-08-08T15:03:01.462Z,27.26
2022-08-08T15:05:42.956Z,27.20
2022-08-08T15:08:35.542Z,27.49
2022-08-08T15:11:09.493Z,28.46
2022-08-08T15:14:01.718Z,28.81
2022-08-08T15:16:34.292Z,29.90
2022-08-08T15:19:03.791Z,30.68
2022-08-08T15:21:33.072Z,31.36
2022-08-08T15:24:03.243Z,31.74
2022-08-08T15:26:32.181Z,31.51
2022-08-08T15:29:01.028Z,32.21
2022-08-08T15:32:03.029Z,31.64
2022-08-08T15:34:31.653Z,31.35
2022-08-08T15:37:02.941Z,31.48
2022-08-08T15:39:38.585Z,30.76
2022-08-08T15:42:10.210Z,30.61
2022-08-08T15:44:42.621Z,29.80
2022-08-08T15:47:16.306Z,31.08
2022-08-08T15:49:49.018Z,30.81
2022-08-08T15:52:20.774Z,30.79
2022-08-08T15:54:52.803Z,30.48
2022-08-08T15:57:23.210Z,30.83
2022-08-08T16:00:05.721Z,31.25
2022-08-08T16:02:50.203Z,30.67
2022-08-08T16:05:20.032Z,30.49
2022-08-08T16:07:53.150Z,30.73
2022-08-08T16:13:27.358Z,31.19
2022-08-08T16:13:32.479Z,31.93
2022-08-08T16:16:13.161Z,31.31
2022-08-08T16:18:56.882Z,31.54
2022-08-08T16:21:29.158Z,32.36
2022-08-08T16:23:58.552Z,32.64
2022-08-08T16:26:34.163Z,33.31
2022-08-08T16:29:10.838Z,33.22
2022-08-08T16:31:48.751Z,33.18
2022-08-08T16:34:19.172Z,32.93
2022-08-08T16:36:50.280Z,32.68
2022-08-08T16:39:54.949Z,32.95
2022-08-08T16:42:17.808Z,33.09
2022-08-08T16:44:54.444Z,33.07
2022-08-08T16:47:40.471Z,33.25
2022-08-08T16:50:14.671Z,33.20
2022-08-08T16:55:19.333Z,33.21
2022-08-08T16:55:53.940Z,33.79
2022-08-08T16:58:25.630Z,34.08
2022-08-08T17:00:58.098Z,34.34
2022-08-08T17:04:01.303Z,33.99
2022-08-08T17:06:17.677Z,34.61
2022-08-08T17:09:05.288Z,35.02
2022-08-08T17:11:49.305Z,35.80
2022-08-08T17:14:27.254Z,35.62
2022-08-08T17:16:58.244Z,35.36
2022-08-08T17:19:28.986Z,35.60
2022-08-08T17:22:01.080Z,36.56
2022-08-08T17:24:30.934Z,36.60
2022-08-08T17:27:00.129Z,36.92
2022-08-08T17:29:33.677Z,36.85
2022-08-08T17:32:07.829Z,36.40
2022-08-08T17:35:04.377Z,36.79
2022-08-08T17:37:27.627Z,37.48
2022-08-08T17:40:12.263Z,37.68
2022-08-08T17:42:47.365Z,37.91
2022-08-08T17:45:23.927Z,38.36
2022-08-08T17:47:54.618Z,37.93
2022-08-08T17:50:24.848Z,38.42
2022-08-08T17:52:54.093Z,37.97
2022-08-08T17:56:05.366Z,38.49
2022-08-08T17:58:15.470Z,39.18
2022-08-08T18:00:47.525Z,39.14
2022-08-08T18:03:24.370Z,38.83
2022-08-08T18:05:53.089Z,39.13
2022-08-08T18:08:24.824Z,39.12
2022-08-08T18:11:15.320Z,39.42
2022-08-08T18:13:45.785Z,39.43
2022-08-08T18:16:20.664Z,39.55
2022-08-08T18:18:56.641Z,39.97
2022-08-08T18:22:00.403Z,39.98
2022-08-08T18:24:19.425Z,40.39
2022-08-08T18:26:54.442Z,40.47
2022-08-08T18:29:33.480Z,40.55
2022-08-08T18:32:05.388Z,41.09
2022-08-08T18:34:36.929Z,41.04
2022-08-08T18:37:09.327Z,41.36
2022-08-08T18:57:08.888Z,42.45
2022-08-08T19:00:10.693Z,42.55
2022-08-08T19:04:01.566Z,42.95
2022-08-08T19:22:37.591Z,45.05
2022-08-08T19:26:01.795Z,45.41
2022-08-08T19:28:19.479Z,45.20
2022-08-08T19:44:02.833Z,46.32
2022-08-08T19:51:46.893Z,47.07
2022-08-08T19:55:19.772Z,47.21
2022-08-08T20:02:30.912Z,47.63
2022-08-08T20:08:32.302Z,48.15
2022-08-08T20:11:01.085Z,48.08
2022-08-08T20:14:12.831Z,48.16
2022-08-08T20:16:18.842Z,48.35
2022-08-08T20:18:53.022Z,48.41
2022-08-08T20:21:27.354Z,48.31
2022-08-08T20:24:00.277Z,48.44
2022-08-08T20:26:29.832Z,48.59
2022-08-08T20:29:02.582Z,48.62
2022-08-08T20:32:06.869Z,48.75
2022-08-08T20:34:30.281Z,48.99
2022-08-08T20:37:02.497Z,49.15
2022-08-08T20:39:39.559Z,49.24
2022-08-08T20:42:28.756Z,49.37
2022-08-08T20:45:07.092Z,49.42
2022-08-08T20:47:36.528Z,49.70
2022-08-08T20:50:10.062Z,49.69
2022-08-08T20:52:39.547Z,49.80
2022-08-08T20:55:22.364Z,49.94
2022-08-08T20:57:51.554Z,50.21
2022-08-08T21:00:41.307Z,50.03
2022-08-08T21:03:16.956Z,50.26
2022-08-08T21:05:49.169Z,50.40
2022-08-08T21:08:36.759Z,50.47
2022-08-08T21:11:16.959Z,50.60
2022-08-08T21:14:06.724Z,50.85
2022-08-08T21:16:36.932Z,50.96
2022-08-08T21:19:10.928Z,50.94
2022-08-08T21:21:42.711Z,50.98
2022-08-08T21:24:20.948Z,51.15
2022-08-08T21:26:59.171Z,51.37
2022-08-08T21:30:05.669Z,51.45
2022-08-08T21:32:25.117Z,51.46
2022-08-08T21:34:56.770Z,51.62
2022-08-08T21:37:53.758Z,51.66
2022-08-08T21:40:31.097Z,51.71
2022-08-08T21:42:59.670Z,51.80
2022-08-08T21:48:00.862Z,51.71
2022-08-08T21:48:35.395Z,51.85
2022-08-08T21:51:10.740Z,51.86
2022-08-08T21:54:35.170Z,51.88
2022-08-08T21:56:36.043Z,52.02
2022-08-08T22:00:03.310Z,52.07
2022-08-08T22:02:22.835Z,52.22
2022-08-08T22:04:52.987Z,52.21
2022-08-08T22:07:26.120Z,52.33
2022-08-08T22:10:09.313Z,52.42
2022-08-08T22:12:51.145Z,52.41
2022-08-08T22:15:20.118Z,52.34
2022-08-08T22:18:01.997Z,51.96
2022-08-08T22:20:35.778Z,52.33
2022-08-08T22:23:08.267Z,52.36
2022-08-08T22:26:19.991Z,52.27
2022-08-08T22:29:14.383Z,52.27
2022-08-08T22:31:15.629Z,52.36
2022-08-08T22:34:12.403Z,52.38
2022-08-08T22:36:34.746Z,52.46
2022-08-08T22:39:06.675Z,52.55
2022-08-08T22:41:36.422Z,52.87
2022-08-08T22:44:07.449Z,52.79
2022-08-08T22:46:38.999Z,52.90
2022-08-08T22:49:09.256Z,52.86
2022-08-08T22:51:46.061Z,52.86
2022-08-08T22:54:30.679Z,52.87
2022-08-08T22:57:11.327Z,52.81
2022-08-08T22:59:58.664Z,52.91
2022-08-08T23:02:28.816Z,52.91
2022-08-08T23:05:01.958Z,52.95
2022-08-08T23:07:51.085Z,52.96
2022-08-08T23:10:25.302Z,53.01
2022-08-08T23:12:56.348Z,53.07
2022-08-08T23:16:41.202Z,53.04
2022-08-08T23:18:13.651Z,53.14
2022-08-08T23:20:56.715Z,53.20
2022-08-08T23:23:24.982Z,53.21
2022-08-08T23:25:53.088Z,53.28
2022-08-08T23:28:25.883Z,53.42
2022-08-08T23:30:54.069Z,53.41
2022-08-08T23:34:16.696Z,53.40
2022-08-08T23:36:11.426Z,53.36
2022-08-08T23:38:44.054Z,53.40
2022-08-08T23:41:23.115Z,53.48
2022-08-08T23:43:56.464Z,53.45
2022-08-08T23:49:03.603Z,53.55
2022-08-08T23:49:20.520Z,53.56
2022-08-08T23:52:04.794Z,53.56
2022-08-08T23:54:43.130Z,53.42
2022-08-08T23:57:39.130Z,53.34
